Main page
METAR-TAF:

METAR-TAF

Airports :

Montpellier–Méditerranée Airport

Montpellier, France

latitude: 43-35N, longitude: 003-58E, elevation: 5 m

Current weather observation

The report was made 12 minutes ago, at 01:30 UTC
Wind 6 kt from the North/Northeast
Temperature 22°C
Humidity 73%
Pressure 1015 hPa
Visibility 10 km or more
no clouds below 1500 m and no cumulonimbus

METAR: LFMT 220130Z AUTO 02006KT CAVOK 22/17 Q1015 NOSIG

Time: 03:42 (01:42 UTC)

Forecast

The report was made 5 hours and 42 minutes ago, at 20:00 UTC
Forecast valid from 21 at 21 UTC to 22 at 21 UTC
Wind 10 kt from the North
Visibility 10 km or more
no clouds below 1500 m and no cumulonimbus
Becoming
from 22 at 12 UTC to 22 at 14 UTC
Wind 15 kt from the North with gusts up to 25 kt

TAF: LFMT 212000Z 2121/2221 36010KT CAVOK BECMG 2212/2214 36015G25KT

Weather observations and forecasts of more than 4000 airports (METAR and TAF reports).

The available stations are represented by yellow and red dots on the map.

Hover mouse over dot to see the name of the station.

Then click to see weather observations and forecasts.

To change the map : click on the green buttons with a black cross to zoom in, on the green button with a dash to zoom out, or on the green arrows for adjacent maps.


METAR-TAF: